Time;durP1;ratioP1;P1;durP2;ratioP2;P2;SDS_P1;SDS_P2;PMS_P1;PMS_P2;Temp;Humidity;BMP_temperature;BMP_pressure;BME280_temperature;BME280_humidity;BME280_pressure;Samples;Min_cycle;Max_cycle;Signal;HPM_P1;HPM_P2
2023/03/10 00:02:01;;;;;;;;;4.67;1.00;;;;;12.68;100.00;98571.91;4977156;28;45733;-83
2023/03/10 00:04:26;;;;;;;;;3.33;2.67;;;;;12.80;100.00;98576.28;4976528;28;46486;-82
2023/03/10 00:06:52;;;;;;;;;3.00;1.00;;;;;12.64;100.00;98565.31;4975646;28;45487;-81
2023/03/10 00:09:17;;;;;;;;;3.33;3.33;;;;;12.70;100.00;98563.38;4974992;28;46092;-81
2023/03/10 00:11:43;;;;;;;;;2.33;2.33;;;;;12.85;100.00;98579.84;4974643;28;45826;-82
2023/03/10 00:14:08;;;;;;;;;6.00;3.00;;;;;12.72;100.00;98541.91;4973429;28;46476;-81
2023/03/10 00:16:34;;;;;;;;;5.67;2.33;;;;;12.84;100.00;98558.13;4974547;28;45465;-81
2023/03/10 00:18:59;;;;;;;;;3.00;1.00;;;;;12.88;100.00;98559.22;4974880;28;45588;-78
2023/03/10 00:21:28;;;;;;;;;5.00;2.00;;;;;12.91;100.00;98558.66;4989120;28;46118;-79
2023/03/10 00:23:55;;;;;;;;;6.67;2.67;;;;;12.68;100.00;98513.34;4972390;28;45913;-79
2023/03/10 00:26:22;;;;;;;;;5.33;3.33;;;;;12.87;100.00;98533.66;4972060;28;45521;-79
2023/03/10 00:28:49;;;;;;;;;10.00;5.33;;;;;12.80;100.00;98524.03;4977423;28;45840;-81
2023/03/10 00:31:17;;;;;;;;;4.67;3.00;;;;;12.85;100.00;98522.09;4972006;28;45914;-79
2023/03/10 00:33:43;;;;;;;;;7.33;2.33;;;;;12.87;100.00;98519.06;4974022;28;45494;-82
2023/03/10 00:36:18;;;;;;;;;6.67;2.00;;;;;12.94;100.00;98527.84;4974518;28;45410;-82
2023/03/10 00:38:45;;;;;;;;;6.00;3.00;;;;;13.02;100.00;98531.94;4970198;28;46064;-83
2023/03/10 00:41:14;;;;;;;;;13.67;4.33;;;;;13.02;100.00;98529.19;4982988;28;45573;-79
2023/03/10 00:43:40;;;;;;;;;7.00;2.33;;;;;13.04;100.00;98525.06;4971643;28;48536;-80
2023/03/10 00:46:06;;;;;;;;;7.00;2.00;;;;;13.05;100.00;98515.72;4972818;28;45650;-79
2023/03/10 00:48:32;;;;;;;;;5.00;2.67;;;;;12.89;100.00;98490.19;4971447;28;45472;-78
2023/03/10 00:50:58;;;;;;;;;5.67;3.00;;;;;13.10;100.00;98516.78;4972737;28;45700;-79
2023/03/10 00:53:24;;;;;;;;;5.00;3.67;;;;;13.09;100.00;98507.72;4973513;28;45568;-77
2023/03/10 00:56:03;;;;;;;;;8.00;2.00;;;;;13.14;100.00;98515.13;4972740;28;45832;-78
2023/03/10 00:58:30;;;;;;;;;8.00;3.67;;;;;13.00;100.00;98509.41;4971904;28;45724;-78
2023/03/10 01:00:56;;;;;;;;;9.00;1.00;;;;;12.93;100.00;98503.38;4971849;28;46374;-81
2023/03/10 01:03:24;;;;;;;;;16.00;10.00;;;;;12.86;100.00;98511.94;4972337;28;45644;-82
2023/03/10 01:05:50;;;;;;;;;2.00;2.00;;;;;12.91;100.00;98530.34;4974193;28;45810;-84
2023/03/10 01:08:17;;;;;;;;;5.33;2.67;;;;;12.81;100.00;98509.19;4970925;28;45941;-84
2023/03/10 01:10:43;;;;;;;;;6.67;2.33;;;;;12.66;100.00;98502.59;4968882;28;45830;-80
2023/03/10 01:13:12;;;;;;;;;6.33;2.00;;;;;12.48;100.00;98478.44;4972083;28;46947;-77
2023/03/10 01:15:39;;;;;;;;;6.33;2.67;;;;;12.61;100.00;98510.88;4973834;28;45506;-84
2023/03/10 01:18:05;;;;;;;;;3.67;1.67;;;;;12.50;100.00;98498.22;4974974;28;45755;-79
2023/03/10 01:20:32;;;;;;;;;2.67;1.67;;;;;12.51;100.00;98506.22;4992269;28;46163;-81
2023/03/10 01:22:59;;;;;;;;;4.00;2.33;;;;;12.51;100.00;98506.22;4985175;28;46836;-79
2023/03/10 01:25:25;;;;;;;;;2.67;2.67;;;;;12.44;100.00;98505.69;4978771;28;45699;-81
2023/03/10 01:27:51;;;;;;;;;5.33;2.33;;;;;12.32;100.00;98494.13;4982284;28;45289;-81
2023/03/10 01:30:16;;;;;;;;;4.00;2.67;;;;;12.05;100.00;98477.91;4976486;28;45757;-82
2023/03/10 01:32:42;;;;;;;;;1.67;1.67;;;;;11.95;100.00;98467.78;4968718;28;45462;-83
2023/03/10 01:35:07;;;;;;;;;3.33;2.00;;;;;12.04;100.00;98507.31;4967039;28;45728;-82
2023/03/10 01:37:33;;;;;;;;;2.00;1.00;;;;;11.83;100.00;98485.28;4973728;28;45843;-80
2023/03/10 01:39:59;;;;;;;;;2.67;2.00;;;;;11.74;100.00;98475.94;4961662;28;45365;-84
2023/03/10 01:42:25;;;;;;;;;6.33;2.00;;;;;11.62;100.00;98472.66;4971890;28;46084;-82
2023/03/10 01:45:08;;;;;;;;;3.67;1.00;;;;;11.66;100.00;98484.72;4970248;28;45840;-81
2023/03/10 01:47:34;;;;;;;;;2.67;1.00;;;;;11.49;100.00;98460.25;4961961;28;45806;-79
2023/03/10 01:50:00;;;;;;;;;5.33;3.00;;;;;11.44;100.00;98466.56;4963880;28;45567;-82
2023/03/10 01:52:30;;;;;;;;;3.33;1.00;;;;;11.40;100.00;98450.91;4976640;28;47411;-79
2023/03/10 01:55:18;;;;;;;;;3.00;2.00;;;;;11.52;100.00;98469.88;4972342;28;45565;-81
2023/03/10 01:57:49;;;;;;;;;5.33;2.00;;;;;11.68;100.00;98484.44;4988141;28;45793;-82
2023/03/10 02:00:15;;;;;;;;;5.00;1.67;;;;;11.66;100.00;98460.84;4961709;28;45472;-83
2023/03/10 02:03:02;;;;;;;;;1.00;1.00;;;;;11.68;100.00;98455.09;4973378;28;45543;-84
2023/03/10 02:05:29;;;;;;;;;2.33;2.33;;;;;11.74;100.00;98447.69;4972108;28;45654;-81
2023/03/10 02:07:56;;;;;;;;;2.33;1.00;;;;;11.81;100.00;98443.56;4986606;28;45732;-83
2023/03/10 02:10:21;;;;;;;;;3.00;3.00;;;;;11.75;100.00;98411.72;4962868;28;45516;-81
2023/03/10 02:12:47;;;;;;;;;4.67;1.33;;;;;11.87;100.00;98424.31;4973354;28;46039;-81
2023/03/10 02:15:12;;;;;;;;;4.67;2.00;;;;;11.81;100.00;98410.59;4974842;28;45411;-81
2023/03/10 02:17:39;;;;;;;;;4.33;2.00;;;;;11.94;100.00;98435.91;4978117;28;45341;-80
2023/03/10 02:21:03;;;;;;;;;5.67;3.33;;;;;11.94;100.00;98439.47;4976664;28;45506;-81
2023/03/10 02:23:47;;;;;;;;;5.33;1.33;;;;;11.88;100.00;98421.31;4912645;28;45990;-83
2023/03/10 02:26:15;;;;;;;;;4.00;2.67;;;;;11.80;100.00;98406.19;4911970;28;45938;-81
2023/03/10 02:28:42;;;;;;;;;5.67;3.00;;;;;11.70;100.00;98386.97;4956351;28;45905;-81
2023/03/10 02:31:08;;;;;;;;;4.67;3.00;;;;;11.69;100.00;98388.09;4974465;28;45441;-80
2023/03/10 02:33:35;;;;;;;;;6.33;3.00;;;;;12.01;100.00;98425.47;4979291;28;45515;-80
2023/03/10 02:36:13;;;;;;;;;6.00;2.33;;;;;11.80;100.00;98378.75;4978640;28;45858;-80
2023/03/10 02:38:38;;;;;;;;;0.67;0.67;;;;;12.09;100.00;98429.56;4976589;28;46243;-80
2023/03/10 02:41:19;;;;;;;;;4.00;2.00;;;;;12.11;100.00;98424.63;4975366;28;45378;-81
2023/03/10 02:43:46;;;;;;;;;4.00;2.67;;;;;12.09;100.00;98411.16;4975312;28;45707;-80
2023/03/10 02:46:12;;;;;;;;;4.33;2.00;;;;;11.84;100.00;98374.34;4977845;28;45718;-82
2023/03/10 02:48:39;;;;;;;;;5.67;2.00;;;;;12.08;100.00;98406.78;4976299;28;45835;-81
2023/03/10 02:51:17;;;;;;;;;4.67;2.33;;;;;12.20;100.00;98420.22;4971879;28;45881;-81
2023/03/10 02:53:42;;;;;;;;;4.33;4.33;;;;;12.09;100.00;98388.38;4987592;28;47279;-80
2023/03/10 02:56:08;;;;;;;;;9.00;4.00;;;;;12.30;100.00;98411.13;4972894;28;45712;-79
2023/03/10 02:58:35;;;;;;;;;6.00;3.00;;;;;12.25;100.00;98392.72;4971778;28;45923;-78
2023/03/10 03:01:01;;;;;;;;;7.67;2.00;;;;;12.14;100.00;98374.59;4971334;28;45360;-77
2023/03/10 03:03:26;;;;;;;;;1.33;1.33;;;;;12.27;100.00;98406.19;4958442;28;46508;-78
2023/03/10 03:05:52;;;;;;;;;6.00;2.67;;;;;12.29;100.00;98409.47;4970802;28;45510;-78
2023/03/10 03:08:18;;;;;;;;;2.00;2.00;;;;;12.26;100.00;98399.88;4971751;28;45841;-77
2023/03/10 03:10:44;;;;;;;;;0.67;0.67;;;;;12.26;100.00;98399.88;4971416;28;45517;-80
2023/03/10 03:13:10;;;;;;;;;4.33;2.00;;;;;12.25;100.00;98398.22;4970571;28;46498;-78
2023/03/10 03:15:36;;;;;;;;;1.00;1.00;;;;;12.23;100.00;98400.44;4971263;28;45562;-77
2023/03/10 03:18:02;;;;;;;;;1.67;1.67;;;;;12.24;100.00;98379.28;4974358;28;45467;-80
2023/03/10 03:20:29;;;;;;;;;4.33;2.00;;;;;12.16;100.00;98380.66;4973476;28;45702;-77
2023/03/10 03:22:56;;;;;;;;;1.33;1.33;;;;;12.18;100.00;98379.28;4974989;28;46805;-79
2023/03/10 03:25:43;;;;;;;;;1.00;0.00;;;;;12.19;100.00;98382.84;4980866;28;44815;-82
2023/03/10 03:28:37;;;;;;;;;3.00;1.00;;;;;11.81;100.00;98332.88;4992556;28;44821;-83
2023/03/10 03:31:13;;;;;;;;;3.67;3.00;;;;;12.15;100.00;98390.81;4977491;28;45459;-83
2023/03/10 03:34:05;;;;;;;;;3.33;1.00;;;;;12.17;100.00;98396.03;4992403;28;47547;-84
2023/03/10 03:36:33;;;;;;;;;0.33;0.33;;;;;11.71;100.00;98322.75;4972260;28;45470;-82
2023/03/10 03:39:05;;;;;;;;;2.67;0.00;;;;;12.14;100.00;98383.69;4974727;28;45430;-84
2023/03/10 03:41:30;;;;;;;;;3.67;1.00;;;;;12.07;100.00;98391.38;4974417;28;45524;-78
2023/03/10 03:43:56;;;;;;;;;2.33;0.00;;;;;11.96;100.00;98376.00;4970782;28;45503;-81
2023/03/10 03:46:21;;;;;;;;;1.00;1.00;;;;;11.96;100.00;98382.34;4972114;28;45722;-81
2023/03/10 03:48:46;;;;;;;;;4.00;0.00;;;;;11.98;100.00;98385.63;4970299;28;45752;-81
2023/03/10 03:51:12;;;;;;;;;3.33;2.67;;;;;12.05;100.00;98410.09;4971511;28;45377;-80
2023/03/10 03:53:37;;;;;;;;;2.67;2.00;;;;;12.04;100.00;98418.59;4971486;28;46990;-81
2023/03/10 03:56:03;;;;;;;;;3.00;1.00;;;;;12.00;100.00;98412.81;4981756;28;45657;-80
2023/03/10 03:58:29;;;;;;;;;6.00;3.33;;;;;11.86;100.00;98406.22;4986727;28;45876;-83
2023/03/10 04:01:01;;;;;;;;;5.67;3.00;;;;;11.84;100.00;98400.97;4977153;28;45363;-83
2023/03/10 04:03:27;;;;;;;;;4.00;0.67;;;;;11.83;100.00;98402.91;4980259;28;46738;-84
2023/03/10 04:05:57;;;;;;;;;1.00;0.67;;;;;11.78;100.00;98405.66;4981742;28;45798;-83
2023/03/10 04:08:32;;;;;;;;;5.33;1.00;;;;;11.76;100.00;98401.53;4977762;28;45682;-80
2023/03/10 04:10:58;;;;;;;;;5.00;2.33;;;;;11.78;100.00;98400.16;4976740;28;45783;-81
2023/03/10 04:13:23;;;;;;;;;2.67;2.33;;;;;11.86;100.00;98417.22;4974761;28;45349;-81
2023/03/10 04:15:57;;;;;;;;;2.00;2.00;;;;;11.81;100.00;98391.38;4975569;28;45509;-82
2023/03/10 04:18:27;;;;;;;;;5.00;2.67;;;;;11.89;100.00;98405.66;4971689;28;45467;-82
2023/03/10 04:20:53;;;;;;;;;3.00;1.00;;;;;11.81;100.00;98387.78;4983436;28;45495;-83
2023/03/10 04:23:20;;;;;;;;;2.67;0.67;;;;;11.87;100.00;98407.84;4983697;28;45467;-83
2023/03/10 04:25:48;;;;;;;;;4.00;1.00;;;;;11.92;100.00;98402.38;4980370;28;45573;-83
2023/03/10 04:28:14;;;;;;;;;4.33;2.00;;;;;11.92;100.00;98407.84;4981366;28;44748;-83
2023/03/10 04:30:56;;;;;;;;;1.00;1.00;;;;;11.82;100.00;98384.78;4980708;28;45176;-83
2023/03/10 04:33:28;;;;;;;;;6.00;2.00;;;;;11.89;100.00;98400.19;4980460;28;45426;-85
2023/03/10 04:36:38;;;;;;;;;5.00;2.00;;;;;11.69;100.00;98368.88;4978991;28;45506;-83
2023/03/10 04:42:43;;;;;;;;;2.67;1.33;;;;;11.75;100.00;98373.25;4901325;28;45543;-81
2023/03/10 04:48:31;;;;;;;;;6.67;1.00;;;;;11.73;100.00;98380.13;4978328;28;45703;-89
2023/03/10 04:50:59;;;;;;;;;1.67;1.67;;;;;11.80;100.00;98386.97;4994445;28;44785;-88
2023/03/10 04:53:25;;;;;;;;;1.00;1.00;;;;;11.92;100.00;98405.94;4984536;28;45499;-88
2023/03/10 04:55:52;;;;;;;;;4.00;2.00;;;;;11.75;100.00;98383.41;4986283;28;45512;-87
2023/03/10 04:58:19;;;;;;;;;3.67;2.00;;;;;11.42;100.00;98350.75;4983349;28;45315;-87
2023/03/10 05:00:45;;;;;;;;;3.33;1.67;;;;;11.73;100.00;98413.88;4983670;28;45372;-87
2023/03/10 05:03:12;;;;;;;;;3.67;0.00;;;;;11.74;100.00;98412.78;4984802;28;46042;-86
2023/03/10 05:05:40;;;;;;;;;2.00;1.00;;;;;11.71;100.00;98427.06;4982461;28;46773;-86
2023/03/10 05:08:06;;;;;;;;;2.00;1.00;;;;;11.67;100.00;98420.47;4985084;28;45381;-85
2023/03/10 05:10:49;;;;;;;;;3.67;1.33;;;;;11.63;100.00;98419.38;4981173;28;45443;-85
2023/03/10 05:13:22;;;;;;;;;1.33;1.00;;;;;11.61;100.00;98416.09;4982767;28;45507;-86
2023/03/10 05:16:00;;;;;;;;;2.33;1.00;;;;;11.62;100.00;98418.56;5004466;28;47119;-85
2023/03/10 05:19:01;;;;;;;;;1.00;1.00;;;;;11.26;100.00;98360.06;4988034;28;44774;-86
2023/03/10 05:21:27;;;;;;;;;0.00;0.00;;;;;11.48;100.00;98395.47;4994746;28;44821;-83
2023/03/10 05:23:53;;;;;;;;;4.00;0.00;;;;;11.42;100.00;98386.44;4987988;28;45665;-84
2023/03/10 05:26:19;;;;;;;;;0.00;0.00;;;;;11.48;100.00;98389.97;4982996;28;47270;-84
2023/03/10 05:28:46;;;;;;;;;0.00;0.00;;;;;11.51;100.00;98418.81;5002457;28;45510;-86
2023/03/10 05:31:27;;;;;;;;;2.33;0.00;;;;;11.42;100.00;98404.78;4989111;28;44820;-86
2023/03/10 05:33:57;;;;;;;;;0.00;0.00;;;;;11.46;100.00;98420.44;4985131;28;45951;-86
2023/03/10 05:36:24;;;;;;;;;2.00;0.00;;;;;11.56;100.00;98436.13;4983406;28;47452;-86
2023/03/10 05:39:25;;;;;;;;;0.00;0.00;;;;;11.54;100.00;98432.84;4989608;28;45284;-86
2023/03/10 05:41:54;;;;;;;;;0.00;0.00;;;;;11.13;100.00;98384.16;4979661;28;45291;-86
2023/03/10 05:44:20;;;;;;;;;1.00;0.00;;;;;11.38;100.00;98429.22;5001632;28;46022;-85
2023/03/10 05:46:45;;;;;;;;;0.00;0.00;;;;;11.24;100.00;98411.63;4993724;28;45404;-84
2023/03/10 05:49:11;;;;;;;;;0.00;0.00;;;;;11.34;100.00;98450.06;5008036;28;45539;-86
2023/03/10 05:51:36;;;;;;;;;1.67;0.00;;;;;11.06;100.00;98397.34;5002388;28;44816;-84
2023/03/10 05:54:05;;;;;;;;;0.67;0.67;;;;;11.29;100.00;98433.59;4996634;28;44819;-85
2023/03/10 05:56:31;;;;;;;;;1.00;0.00;;;;;11.16;100.00;98423.94;4992956;28;45319;-86
2023/03/10 05:58:57;;;;;;;;;1.00;0.00;;;;;10.76;100.00;98356.91;4993758;28;45293;-86
2023/03/10 06:01:22;;;;;;;;;1.00;0.00;;;;;10.95;100.00;98398.38;4994377;28;45506;-85
2023/03/10 06:03:48;;;;;;;;;0.00;0.00;;;;;11.18;100.00;98440.16;4989435;28;45368;-81
2023/03/10 06:06:14;;;;;;;;;0.67;0.00;;;;;11.18;100.00;98440.97;4973133;28;45752;-79
2023/03/10 06:08:40;;;;;;;;;2.00;1.00;;;;;10.93;100.00;98408.81;4987832;28;45377;-82
2023/03/10 06:11:05;;;;;;;;;0.33;0.00;;;;;11.22;100.00;98453.06;4986936;28;45766;-82
2023/03/10 06:13:32;;;;;;;;;1.00;0.00;;;;;11.20;100.00;98443.47;4974213;28;45472;-82
2023/03/10 06:16:01;;;;;;;;;0.00;0.00;;;;;11.23;100.00;98467.63;4984046;28;47182;-82
2023/03/10 06:18:27;;;;;;;;;0.67;0.33;;;;;11.13;100.00;98455.47;4975431;28;45887;-81
2023/03/10 06:20:56;;;;;;;;;0.00;0.00;;;;;11.13;100.00;98462.91;4975526;28;45482;-82
2023/03/10 06:23:23;;;;;;;;;1.33;0.00;;;;;11.13;100.00;98465.66;4981323;28;46567;-81
2023/03/10 06:26:10;;;;;;;;;1.33;0.00;;;;;11.09;100.00;98470.84;4973364;28;47086;-81
2023/03/10 06:28:38;;;;;;;;;1.67;0.33;;;;;11.03;100.00;98471.94;4982746;28;45705;-80
2023/03/10 06:31:06;;;;;;;;;1.33;1.00;;;;;10.98;100.00;98471.91;4970642;28;45970;-80
2023/03/10 06:33:33;;;;;;;;;0.00;0.00;;;;;11.06;100.00;98496.09;4970961;28;45506;-80
2023/03/10 06:35:58;;;;;;;;;0.00;0.00;;;;;11.03;100.00;98504.84;4970709;28;45531;-79
2023/03/10 06:38:24;;;;;;;;;0.00;0.00;;;;;11.01;100.00;98501.53;4971358;28;45935;-79
2023/03/10 06:40:49;;;;;;;;;1.00;0.00;;;;;10.88;100.00;98472.69;4972920;28;45600;-79
2023/03/10 06:43:16;;;;;;;;;0.00;0.00;;;;;10.99;100.00;98495.50;4973359;28;45407;-80
2023/03/10 06:45:43;;;;;;;;;0.00;0.00;;;;;11.02;100.00;98497.69;4974935;28;46326;-83
2023/03/10 06:48:10;;;;;;;;;1.00;0.00;;;;;11.02;100.00;98497.69;4969481;28;45615;-83
2023/03/10 06:51:02;;;;;;;;;2.00;0.00;;;;;11.29;100.00;98513.19;4973602;28;45360;-80
2023/03/10 06:53:29;;;;;;;;;0.00;0.00;;;;;11.45;100.00;98516.78;4972428;28;45592;-82
2023/03/10 06:56:13;;;;;;;;;0.00;0.00;;;;;11.59;100.00;98530.84;4973909;28;46622;-85
2023/03/10 06:58:43;;;;;;;;;0.00;0.00;;;;;11.45;100.00;98495.66;4966174;28;45780;-83
2023/03/10 07:01:21;;;;;;;;;0.00;0.00;;;;;11.63;100.00;98518.19;4969909;28;45478;-80
2023/03/10 07:03:46;;;;;;;;;1.00;0.00;;;;;11.59;100.00;98523.41;4969761;28;45514;-80
2023/03/10 07:06:11;;;;;;;;;0.00;0.00;;;;;11.75;100.00;98551.75;4965882;28;45503;-82
2023/03/10 07:08:41;;;;;;;;;0.00;0.00;;;;;11.90;100.00;98541.88;4967902;28;45521;-83
2023/03/10 07:11:08;;;;;;;;;0.00;0.00;;;;;11.99;100.00;98554.00;4966613;28;45452;-81
2023/03/10 07:13:33;;;;;;;;;0.00;0.00;;;;;11.91;100.00;98541.59;4977098;28;45807;-80
2023/03/10 07:15:59;;;;;;;;;0.00;0.00;;;;;12.01;100.00;98573.81;4977667;28;45492;-83
2023/03/10 07:18:26;;;;;;;;;0.00;0.00;;;;;11.78;100.00;98556.69;4980214;28;45485;-82
2023/03/10 07:20:53;;;;;;;;;1.00;0.00;;;;;11.83;100.00;98567.69;4973940;28;45345;-81
2023/03/10 07:23:19;;;;;;;;;0.00;0.00;;;;;11.95;100.00;98591.38;4973967;28;45351;-83
2023/03/10 07:25:44;;;;;;;;;0.00;0.00;;;;;11.84;100.00;98593.22;4984558;28;45622;-82
2023/03/10 07:28:10;;;;;;;;;0.33;0.00;;;;;11.75;100.00;98589.34;4977106;28;45629;-81
2023/03/10 07:30:37;;;;;;;;;0.33;0.00;;;;;11.95;100.00;98607.84;4971316;28;45847;-81
2023/03/10 07:33:03;;;;;;;;;0.00;0.00;;;;;12.03;100.00;98614.75;4971962;28;45560;-82
2023/03/10 07:35:28;;;;;;;;;0.00;0.00;;;;;11.86;100.00;98609.47;4972700;28;46290;-82
2023/03/10 07:37:54;;;;;;;;;0.33;0.00;;;;;12.06;100.00;98625.19;4990237;28;45839;-82
2023/03/10 07:40:23;;;;;;;;;0.67;0.00;;;;;11.96;100.00;98613.09;4975635;28;45610;-84
2023/03/10 07:42:50;;;;;;;;;0.00;0.00;;;;;11.92;100.00;98628.41;4972450;28;45582;-80
2023/03/10 07:45:34;;;;;;;;;0.67;0.67;;;;;12.13;100.00;98650.50;4972185;28;45736;-84
2023/03/10 07:48:00;;;;;;;;;0.00;0.00;;;;;12.05;100.00;98651.84;4975401;28;45432;-78
2023/03/10 07:50:25;;;;;;;;;0.00;0.00;;;;;12.03;100.00;98702.66;4961900;28;45496;-80
2023/03/10 07:52:50;;;;;;;;;0.67;0.00;;;;;12.01;100.00;98683.69;4973540;28;45362;-78
2023/03/10 07:55:16;;;;;;;;;0.00;0.00;;;;;12.05;100.00;98704.03;4968093;28;47053;-79
2023/03/10 07:57:42;;;;;;;;;0.33;0.33;;;;;11.91;100.00;98676.19;4969885;28;46013;-82
2023/03/10 08:00:09;;;;;;;;;0.00;0.00;;;;;12.01;100.00;98711.97;4974603;28;45867;-78
2023/03/10 08:02:34;;;;;;;;;0.00;0.00;;;;;12.07;100.00;98698.28;4973854;28;45622;-80
2023/03/10 08:05:00;;;;;;;;;0.33;0.00;;;;;12.07;100.00;98710.09;4973132;28;46224;-79
2023/03/10 08:07:26;;;;;;;;;1.00;0.00;;;;;12.00;100.00;98715.81;4972428;28;45835;-76
2023/03/10 08:09:53;;;;;;;;;0.00;0.00;;;;;12.08;100.00;98730.13;4972601;28;45785;-78
2023/03/10 08:12:20;;;;;;;;;0.00;0.00;;;;;12.08;100.00;98777.69;4974324;28;45765;-79
2023/03/10 08:14:46;;;;;;;;;0.00;0.00;;;;;11.88;100.00;98755.56;4973748;28;45784;-80
2023/03/10 08:17:12;;;;;;;;;1.00;0.00;;;;;12.10;100.00;98772.75;4972501;28;45812;-78
2023/03/10 08:19:38;;;;;;;;;0.00;0.00;;;;;12.05;100.00;98774.63;4967832;28;45730;-80
2023/03/10 08:22:03;;;;;;;;;0.00;0.00;;;;;11.93;100.00;98753.72;4984878;28;46343;-80
2023/03/10 08:24:29;;;;;;;;;0.00;0.00;;;;;12.17;100.00;98809.06;4959806;28;46573;-80
2023/03/10 08:26:55;;;;;;;;;0.00;0.00;;;;;12.03;100.00;98821.59;4987806;28;46025;-79
2023/03/10 08:29:20;;;;;;;;;0.00;0.00;;;;;12.01;100.00;98832.03;4972169;28;46209;-78
2023/03/10 08:31:46;;;;;;;;;0.00;0.00;;;;;12.06;100.00;98834.81;4973523;28;45706;-80
2023/03/10 08:34:12;;;;;;;;;0.00;0.00;;;;;12.03;100.00;98846.34;4973323;28;46638;-82
2023/03/10 08:36:38;;;;;;;;;0.00;0.00;;;;;12.04;100.00;98841.69;4973510;28;45837;-78
2023/03/10 08:39:04;;;;;;;;;0.00;0.00;;;;;12.03;100.00;98843.59;4973152;28;45505;-79
2023/03/10 08:41:47;;;;;;;;;0.00;0.00;;;;;12.25;100.00;98859.13;4975818;28;45834;-79
2023/03/10 08:44:16;;;;;;;;;1.00;0.00;;;;;12.26;100.00;98874.50;4972984;28;46152;-79
2023/03/10 08:46:43;;;;;;;;;0.00;0.00;;;;;12.30;100.00;98873.69;4972307;28;45830;-78
2023/03/10 08:49:09;;;;;;;;;0.00;0.00;;;;;12.28;100.00;98873.13;4971532;28;45585;-79
2023/03/10 08:51:35;;;;;;;;;0.00;0.00;;;;;12.10;100.00;98879.91;4970839;28;46143;-79
2023/03/10 08:54:01;;;;;;;;;0.00;0.00;;;;;12.14;100.00;98885.69;4971715;28;46861;-80
2023/03/10 08:56:27;;;;;;;;;1.00;1.00;;;;;12.06;100.00;98898.00;4970923;28;45843;-79
2023/03/10 08:58:57;;;;;;;;;1.50;1.00;;;;;12.04;100.00;98913.94;4971101;28;45909;-80
2023/03/10 09:01:25;;;;;;;;;0.00;0.00;;;;;11.93;100.00;98895.72;4971545;28;45829;-79
2023/03/10 09:03:51;;;;;;;;;0.00;0.00;;;;;11.88;100.00;98929.44;4985004;28;46517;-79
2023/03/10 09:06:17;;;;;;;;;2.00;0.00;;;;;11.86;100.00;98917.06;4969466;28;45943;-79
2023/03/10 09:08:42;;;;;;;;;2.00;0.00;;;;;11.89;100.00;98927.53;4972018;28;45439;-79
2023/03/10 09:11:13;;;;;;;;;0.00;0.00;;;;;11.82;100.00;98931.31;4969085;28;46127;-78
2023/03/10 09:13:38;;;;;;;;;0.00;0.00;;;;;11.58;100.00;98921.78;4970547;28;48289;-79
2023/03/10 09:16:04;;;;;;;;;1.00;0.00;;;;;11.73;100.00;98952.09;4970295;28;45551;-78
2023/03/10 09:18:30;;;;;;;;;0.67;0.67;;;;;11.81;100.00;98968.13;4970820;28;45990;-78
2023/03/10 09:20:55;;;;;;;;;0.00;0.00;;;;;11.83;100.00;98981.59;4968697;28;45862;-78
2023/03/10 09:23:21;;;;;;;;;0.00;0.00;;;;;11.62;100.00;98964.09;4970875;28;46020;-79
2023/03/10 09:25:46;;;;;;;;;2.67;1.00;;;;;11.62;100.00;98972.34;4969814;28;45849;-79
2023/03/10 09:28:12;;;;;;;;;0.00;0.00;;;;;11.56;100.00;99009.06;4969907;28;45861;-80
2023/03/10 09:30:39;;;;;;;;;0.00;0.00;;;;;11.60;100.00;99040.38;4970541;28;46508;-79
2023/03/10 09:33:07;;;;;;;;;0.67;0.67;;;;;11.65;100.00;99040.47;4971829;28;46189;-80
2023/03/10 09:35:33;;;;;;;;;0.00;0.00;;;;;11.59;100.00;99025.03;4969831;28;45793;-80
2023/03/10 09:37:58;;;;;;;;;3.00;0.00;;;;;11.81;100.00;99047.78;4971674;28;45807;-78
2023/03/10 09:40:24;;;;;;;;;3.33;1.00;;;;;11.72;100.00;99054.81;4971313;28;46062;-80
2023/03/10 09:42:49;;;;;;;;;3.33;0.00;;;;;11.65;100.00;99059.69;4971124;28;45571;-80
2023/03/10 09:45:46;;;;;;;;;1.00;0.00;;;;;11.54;100.00;99074.38;4983733;28;45490;-80
2023/03/10 09:48:45;;;;;;;;;1.00;0.00;;;;;11.37;100.00;99082.69;4971371;28;45407;-79
2023/03/10 09:51:22;;;;;;;;;3.00;1.00;;;;;11.31;100.00;99098.25;4962198;28;45480;-80
2023/03/10 09:53:57;;;;;;;;;0.00;0.00;;;;;11.26;100.00;99095.44;4969476;28;47370;-78
2023/03/10 09:56:28;;;;;;;;;3.67;0.33;;;;;11.20;100.00;99090.97;4970705;28;45903;-79
2023/03/10 09:59:00;;;;;;;;;4.00;1.00;;;;;11.04;100.00;99084.44;4970875;28;45467;-79
2023/03/10 10:01:30;;;;;;;;;4.00;1.33;;;;;11.16;100.00;99126.31;4968797;28;46306;-81
2023/03/10 10:04:03;;;;;;;;;2.00;0.00;;;;;11.19;100.00;99127.72;4972540;28;45675;-80
2023/03/10 10:06:36;;;;;;;;;0.67;0.33;;;;;11.16;100.00;99137.28;4968471;28;45983;-78
2023/03/10 10:09:20;;;;;;;;;1.00;1.00;;;;;11.05;100.00;99143.72;4970804;28;45575;-79
2023/03/10 10:11:45;;;;;;;;;3.00;1.33;;;;;11.04;100.00;99136.56;4970671;28;45525;-78
2023/03/10 10:14:24;;;;;;;;;3.67;1.33;;;;;10.98;100.00;99157.59;4972318;28;46081;-79
2023/03/10 10:17:04;;;;;;;;;3.33;0.00;;;;;11.06;100.00;99192.00;4962115;28;45845;-78
2023/03/10 10:19:31;;;;;;;;;2.00;2.00;;;;;11.06;100.00;99181.88;4969577;28;45480;-78
2023/03/10 10:21:59;;;;;;;;;2.00;1.00;;;;;11.08;100.00;99212.63;4986452;28;46231;-79
2023/03/10 10:24:25;;;;;;;;;4.00;2.00;;;;;10.96;100.00;99195.44;4963106;28;48263;-79
2023/03/10 10:26:50;;;;;;;;;1.33;1.00;;;;;10.97;100.00;99205.31;4965573;28;45451;-80
2023/03/10 10:29:15;;;;;;;;;0.00;0.00;;;;;11.07;100.00;99227.41;4969940;28;45958;-79
2023/03/10 10:31:41;;;;;;;;;1.67;1.00;;;;;10.99;100.00;99202.31;4976238;28;45996;-80
2023/03/10 10:34:21;;;;;;;;;2.00;1.00;;;;;11.38;100.00;99230.66;4971451;28;45783;-80
2023/03/10 10:36:53;;;;;;;;;2.00;0.33;;;;;11.24;100.00;99189.00;4969172;28;45443;-81
2023/03/10 10:39:32;;;;;;;;;3.33;1.00;;;;;11.47;100.00;99225.56;4965489;28;45873;-80
2023/03/10 10:42:24;;;;;;;;;5.00;0.67;;;;;11.75;100.00;99219.09;4970009;28;45875;-79
2023/03/10 10:44:55;;;;;;;;;2.33;1.00;;;;;12.08;100.00;99228.31;4969992;28;45613;-78
2023/03/10 10:47:27;;;;;;;;;0.67;0.67;;;;;12.34;100.00;99231.38;4977568;28;45448;-79
2023/03/10 10:49:54;;;;;;;;;2.00;1.00;;;;;12.56;100.00;99239.59;4969007;28;45758;-80
2023/03/10 10:52:24;;;;;;;;;1.00;1.00;;;;;12.63;100.00;99253.09;4970419;28;45753;-81
2023/03/10 10:54:59;;;;;;;;;2.00;2.00;;;;;12.46;100.00;99234.78;4970738;28;46181;-79
2023/03/10 10:57:32;;;;;;;;;0.67;0.67;;;;;12.41;100.00;99245.75;4968086;28;45510;-81
2023/03/10 11:00:25;;;;;;;;;3.67;1.33;;;;;12.40;100.00;99287.25;4971875;28;45462;-80
2023/03/10 11:02:52;;;;;;;;;2.33;2.00;;;;;12.24;100.00;99288.97;4972015;28;45422;-81
2023/03/10 11:05:22;;;;;;;;;1.00;1.00;;;;;12.21;100.00;99286.72;4959253;28;45789;-81
2023/03/10 11:07:49;;;;;;;;;5.00;2.33;;;;;12.36;100.00;99303.41;4974737;28;45751;-79
2023/03/10 11:10:25;;;;;;;;;2.00;0.00;;;;;12.27;100.00;99272.78;4966864;28;46595;-79
2023/03/10 11:12:54;;;;;;;;;2.67;1.00;;;;;12.54;100.00;99292.09;4988090;28;45958;-80
2023/03/10 11:16:01;;;;;;;;;2.67;1.00;;;;;12.73;100.00;99326.66;4969650;28;45619;-80
2023/03/10 11:18:34;;;;;;;;;0.00;0.00;;;;;12.85;100.00;99314.41;4969745;28;45521;-81
2023/03/10 11:21:22;;;;;;;;;2.33;1.00;;;;;12.91;100.00;99336.50;4966687;28;45468;-84
2023/03/10 11:24:07;;;;;;;;;3.00;1.67;;;;;13.10;100.00;99351.53;4966107;28;45947;-82
2023/03/10 11:26:59;;;;;;;;;2.00;1.67;;;;;13.07;100.00;99338.31;4966631;28;45554;-80
2023/03/10 11:29:34;;;;;;;;;0.67;0.00;;;;;13.63;100.00;99389.50;4967074;28;45498;-81
2023/03/10 11:32:45;;;;;;;;;2.00;1.00;;;;;13.83;100.00;99350.25;4968534;28;45862;-79
2023/03/10 11:35:44;;;;;;;;;4.33;0.33;;;;;13.97;100.00;99356.13;4949387;28;46218;-79
2023/03/10 11:38:28;;;;;;;;;4.67;0.67;;;;;13.97;100.00;99369.91;4968012;28;45739;-78
2023/03/10 11:41:00;;;;;;;;;1.33;0.00;;;;;14.02;100.00;99369.94;4967028;28;45703;-81
2023/03/10 11:43:34;;;;;;;;;0.00;0.00;;;;;14.02;100.00;99359.75;4967395;28;45958;-75
2023/03/10 11:46:13;;;;;;;;;2.00;0.00;;;;;13.76;100.00;99351.31;4981386;28;45828;-79